sensor_id;sensor_type;location;lat;lon;timestamp;P1;durP1;ratioP1;P2;durP2;ratioP2
58372;SDS011;44177;43.356;27.672;2023-08-20T00:00:06;14.82;;;10.48;;
58372;SDS011;44177;43.356;27.672;2023-08-20T00:02:33;14.20;;;9.57;;
58372;SDS011;44177;43.356;27.672;2023-08-20T00:05:02;12.68;;;9.55;;
58372;SDS011;44177;43.356;27.672;2023-08-20T00:07:29;11.15;;;9.88;;
58372;SDS011;44177;43.356;27.672;2023-08-20T00:09:56;13.90;;;10.23;;
58372;SDS011;44177;43.356;27.672;2023-08-20T00:12:21;12.82;;;9.52;;
58372;SDS011;44177;43.356;27.672;2023-08-20T00:17:23;11.00;;;9.20;;
58372;SDS011;44177;43.356;27.672;2023-08-20T00:19:52;11.90;;;9.43;;
58372;SDS011;44177;43.356;27.672;2023-08-20T00:22:24;13.07;;;10.13;;
58372;SDS011;44177;43.356;27.672;2023-08-20T00:24:51;12.80;;;9.95;;
58372;SDS011;44177;43.356;27.672;2023-08-20T00:27:18;13.65;;;9.95;;
58372;SDS011;44177;43.356;27.672;2023-08-20T00:29:43;13.20;;;10.52;;
58372;SDS011;44177;43.356;27.672;2023-08-20T00:32:09;18.80;;;11.30;;
58372;SDS011;44177;43.356;27.672;2023-08-20T00:34:35;13.38;;;10.57;;
58372;SDS011;44177;43.356;27.672;2023-08-20T00:37:00;15.20;;;10.93;;
58372;SDS011;44177;43.356;27.672;2023-08-20T00:39:27;17.50;;;11.65;;
58372;SDS011;44177;43.356;27.672;2023-08-20T00:41:53;17.85;;;13.00;;
58372;SDS011;44177;43.356;27.672;2023-08-20T00:44:18;18.55;;;11.88;;
58372;SDS011;44177;43.356;27.672;2023-08-20T00:46:44;17.95;;;12.30;;
58372;SDS011;44177;43.356;27.672;2023-08-20T00:49:10;18.00;;;12.68;;
58372;SDS011;44177;43.356;27.672;2023-08-20T00:51:36;16.17;;;12.18;;
58372;SDS011;44177;43.356;27.672;2023-08-20T00:54:02;15.05;;;12.18;;
58372;SDS011;44177;43.356;27.672;2023-08-20T00:56:28;15.93;;;11.43;;
58372;SDS011;44177;43.356;27.672;2023-08-20T00:58:54;15.60;;;11.88;;
58372;SDS011;44177;43.356;27.672;2023-08-20T01:01:21;17.02;;;12.15;;
58372;SDS011;44177;43.356;27.672;2023-08-20T01:03:47;15.30;;;11.73;;
58372;SDS011;44177;43.356;27.672;2023-08-20T01:12:03;13.60;;;10.82;;
58372;SDS011;44177;43.356;27.672;2023-08-20T01:14:29;14.80;;;9.65;;
58372;SDS011;44177;43.356;27.672;2023-08-20T01:16:54;12.10;;;10.18;;
58372;SDS011;44177;43.356;27.672;2023-08-20T01:19:21;13.75;;;9.43;;
58372;SDS011;44177;43.356;27.672;2023-08-20T01:21:56;13.25;;;9.30;;
58372;SDS011;44177;43.356;27.672;2023-08-20T01:24:47;12.88;;;9.52;;
58372;SDS011;44177;43.356;27.672;2023-08-20T01:30:16;11.50;;;9.63;;
58372;SDS011;44177;43.356;27.672;2023-08-20T01:32:46;14.50;;;9.68;;
58372;SDS011;44177;43.356;27.672;2023-08-20T01:35:13;12.20;;;9.20;;
58372;SDS011;44177;43.356;27.672;2023-08-20T01:37:41;13.05;;;10.07;;
58372;SDS011;44177;43.356;27.672;2023-08-20T01:40:07;11.65;;;9.85;;
58372;SDS011;44177;43.356;27.672;2023-08-20T01:42:35;13.63;;;9.90;;
58372;SDS011;44177;43.356;27.672;2023-08-20T01:45:04;13.02;;;9.95;;
58372;SDS011;44177;43.356;27.672;2023-08-20T01:47:31;13.15;;;9.93;;
58372;SDS011;44177;43.356;27.672;2023-08-20T01:49:57;16.23;;;10.20;;
58372;SDS011;44177;43.356;27.672;2023-08-20T01:52:23;14.23;;;10.63;;
58372;SDS011;44177;43.356;27.672;2023-08-20T01:54:49;12.98;;;10.50;;
58372;SDS011;44177;43.356;27.672;2023-08-20T01:57:14;12.68;;;9.70;;
58372;SDS011;44177;43.356;27.672;2023-08-20T01:59:40;12.07;;;10.35;;
58372;SDS011;44177;43.356;27.672;2023-08-20T02:02:05;11.23;;;9.63;;
58372;SDS011;44177;43.356;27.672;2023-08-20T02:04:31;14.40;;;10.77;;
58372;SDS011;44177;43.356;27.672;2023-08-20T02:06:57;12.45;;;10.02;;
58372;SDS011;44177;43.356;27.672;2023-08-20T02:09:23;15.93;;;10.07;;
58372;SDS011;44177;43.356;27.672;2023-08-20T02:11:49;14.23;;;9.88;;
58372;SDS011;44177;43.356;27.672;2023-08-20T02:14:15;14.18;;;11.02;;
58372;SDS011;44177;43.356;27.672;2023-08-20T02:16:40;15.48;;;11.18;;
58372;SDS011;44177;43.356;27.672;2023-08-20T02:19:06;11.93;;;10.43;;
58372;SDS011;44177;43.356;27.672;2023-08-20T02:21:32;13.32;;;9.95;;
58372;SDS011;44177;43.356;27.672;2023-08-20T02:23:57;14.35;;;9.65;;
58372;SDS011;44177;43.356;27.672;2023-08-20T02:26:23;13.73;;;9.82;;
58372;SDS011;44177;43.356;27.672;2023-08-20T02:28:48;15.10;;;10.15;;
58372;SDS011;44177;43.356;27.672;2023-08-20T02:31:13;13.55;;;9.77;;
58372;SDS011;44177;43.356;27.672;2023-08-20T02:33:39;13.77;;;9.73;;
58372;SDS011;44177;43.356;27.672;2023-08-20T02:36:04;11.65;;;9.55;;
58372;SDS011;44177;43.356;27.672;2023-08-20T02:38:30;11.75;;;9.63;;
58372;SDS011;44177;43.356;27.672;2023-08-20T02:40:56;12.25;;;9.57;;
58372;SDS011;44177;43.356;27.672;2023-08-20T02:43:21;12.13;;;9.77;;
58372;SDS011;44177;43.356;27.672;2023-08-20T02:45:47;13.52;;;9.98;;
58372;SDS011;44177;43.356;27.672;2023-08-20T02:48:13;14.55;;;9.23;;
58372;SDS011;44177;43.356;27.672;2023-08-20T02:50:39;12.80;;;9.85;;
58372;SDS011;44177;43.356;27.672;2023-08-20T02:53:05;13.13;;;9.90;;
58372;SDS011;44177;43.356;27.672;2023-08-20T02:55:31;12.02;;;9.43;;
58372;SDS011;44177;43.356;27.672;2023-08-20T02:57:57;11.48;;;9.30;;
58372;SDS011;44177;43.356;27.672;2023-08-20T03:00:22;13.70;;;9.85;;
58372;SDS011;44177;43.356;27.672;2023-08-20T03:02:48;10.88;;;9.00;;
58372;SDS011;44177;43.356;27.672;2023-08-20T03:05:13;13.75;;;9.55;;
58372;SDS011;44177;43.356;27.672;2023-08-20T03:07:39;15.32;;;9.57;;
58372;SDS011;44177;43.356;27.672;2023-08-20T03:10:05;13.27;;;9.85;;
58372;SDS011;44177;43.356;27.672;2023-08-20T03:12:31;11.27;;;9.75;;
58372;SDS011;44177;43.356;27.672;2023-08-20T03:14:56;13.70;;;9.50;;
58372;SDS011;44177;43.356;27.672;2023-08-20T03:17:22;10.82;;;9.50;;
58372;SDS011;44177;43.356;27.672;2023-08-20T03:19:54;10.82;;;9.23;;
58372;SDS011;44177;43.356;27.672;2023-08-20T03:22:21;13.98;;;9.45;;
58372;SDS011;44177;43.356;27.672;2023-08-20T03:24:47;13.30;;;9.70;;
58372;SDS011;44177;43.356;27.672;2023-08-20T03:27:12;13.18;;;10.05;;
58372;SDS011;44177;43.356;27.672;2023-08-20T03:29:38;12.93;;;10.07;;
58372;SDS011;44177;43.356;27.672;2023-08-20T03:32:03;12.57;;;9.60;;
58372;SDS011;44177;43.356;27.672;2023-08-20T03:34:29;11.15;;;9.13;;
58372;SDS011;44177;43.356;27.672;2023-08-20T03:36:54;13.57;;;9.80;;
58372;SDS011;44177;43.356;27.672;2023-08-20T03:39:20;11.85;;;8.80;;
58372;SDS011;44177;43.356;27.672;2023-08-20T03:41:45;13.05;;;9.40;;
58372;SDS011;44177;43.356;27.672;2023-08-20T03:44:11;14.65;;;9.25;;
58372;SDS011;44177;43.356;27.672;2023-08-20T03:46:36;12.82;;;9.93;;
58372;SDS011;44177;43.356;27.672;2023-08-20T03:49:02;10.95;;;9.70;;
58372;SDS011;44177;43.356;27.672;2023-08-20T03:51:27;11.57;;;9.25;;
58372;SDS011;44177;43.356;27.672;2023-08-20T03:53:53;14.20;;;9.18;;
58372;SDS011;44177;43.356;27.672;2023-08-20T03:56:18;11.18;;;9.85;;
58372;SDS011;44177;43.356;27.672;2023-08-20T03:58:44;13.98;;;8.70;;
58372;SDS011;44177;43.356;27.672;2023-08-20T04:01:10;10.95;;;9.05;;
58372;SDS011;44177;43.356;27.672;2023-08-20T04:03:35;13.45;;;8.63;;
58372;SDS011;44177;43.356;27.672;2023-08-20T04:06:01;12.25;;;9.27;;
58372;SDS011;44177;43.356;27.672;2023-08-20T04:08:26;9.50;;;8.45;;
58372;SDS011;44177;43.356;27.672;2023-08-20T04:10:51;11.57;;;8.55;;
58372;SDS011;44177;43.356;27.672;2023-08-20T04:13:17;13.30;;;8.45;;
58372;SDS011;44177;43.356;27.672;2023-08-20T04:15:43;11.45;;;8.70;;
58372;SDS011;44177;43.356;27.672;2023-08-20T04:18:09;9.50;;;8.10;;
58372;SDS011;44177;43.356;27.672;2023-08-20T04:20:34;11.90;;;8.63;;
58372;SDS011;44177;43.356;27.672;2023-08-20T04:23:00;12.38;;;8.02;;
58372;SDS011;44177;43.356;27.672;2023-08-20T04:25:26;10.43;;;8.07;;
58372;SDS011;44177;43.356;27.672;2023-08-20T04:27:52;12.25;;;8.63;;
58372;SDS011;44177;43.356;27.672;2023-08-20T04:30:17;10.98;;;7.65;;
58372;SDS011;44177;43.356;27.672;2023-08-20T04:32:43;9.18;;;8.10;;
58372;SDS011;44177;43.356;27.672;2023-08-20T04:35:08;10.85;;;8.48;;
58372;SDS011;44177;43.356;27.672;2023-08-20T04:37:35;10.60;;;8.70;;
58372;SDS011;44177;43.356;27.672;2023-08-20T04:40:01;10.57;;;8.00;;
58372;SDS011;44177;43.356;27.672;2023-08-20T04:42:29;9.90;;;8.90;;
58372;SDS011;44177;43.356;27.672;2023-08-20T04:44:55;10.75;;;8.25;;
58372;SDS011;44177;43.356;27.672;2023-08-20T04:47:21;10.15;;;8.32;;
58372;SDS011;44177;43.356;27.672;2023-08-20T04:49:46;10.85;;;8.20;;
58372;SDS011;44177;43.356;27.672;2023-08-20T04:52:12;13.07;;;8.45;;
58372;SDS011;44177;43.356;27.672;2023-08-20T04:54:37;9.10;;;7.97;;
58372;SDS011;44177;43.356;27.672;2023-08-20T04:57:02;8.73;;;7.82;;
58372;SDS011;44177;43.356;27.672;2023-08-20T04:59:28;9.95;;;7.68;;
58372;SDS011;44177;43.356;27.672;2023-08-20T05:01:53;10.27;;;8.18;;
58372;SDS011;44177;43.356;27.672;2023-08-20T05:04:19;9.23;;;7.57;;
58372;SDS011;44177;43.356;27.672;2023-08-20T05:06:45;9.32;;;7.45;;
58372;SDS011;44177;43.356;27.672;2023-08-20T05:09:10;9.68;;;7.53;;
58372;SDS011;44177;43.356;27.672;2023-08-20T05:11:36;10.00;;;7.50;;
58372;SDS011;44177;43.356;27.672;2023-08-20T05:14:01;11.63;;;8.25;;
58372;SDS011;44177;43.356;27.672;2023-08-20T05:16:27;8.85;;;7.38;;
58372;SDS011;44177;43.356;27.672;2023-08-20T05:18:52;9.10;;;7.40;;
58372;SDS011;44177;43.356;27.672;2023-08-20T05:21:17;10.88;;;7.72;;
58372;SDS011;44177;43.356;27.672;2023-08-20T05:23:43;12.13;;;6.95;;
58372;SDS011;44177;43.356;27.672;2023-08-20T05:26:08;11.10;;;7.38;;
58372;SDS011;44177;43.356;27.672;2023-08-20T05:28:35;8.18;;;7.25;;
58372;SDS011;44177;43.356;27.672;2023-08-20T05:31:00;8.15;;;6.80;;
58372;SDS011;44177;43.356;27.672;2023-08-20T05:33:26;11.90;;;7.25;;
58372;SDS011;44177;43.356;27.672;2023-08-20T05:35:51;9.32;;;7.00;;
58372;SDS011;44177;43.356;27.672;2023-08-20T05:38:17;9.38;;;7.45;;
58372;SDS011;44177;43.356;27.672;2023-08-20T05:40:42;8.82;;;7.43;;
58372;SDS011;44177;43.356;27.672;2023-08-20T05:43:08;9.05;;;6.85;;
58372;SDS011;44177;43.356;27.672;2023-08-20T05:45:33;8.95;;;6.70;;
58372;SDS011;44177;43.356;27.672;2023-08-20T05:47:59;10.13;;;7.13;;
58372;SDS011;44177;43.356;27.672;2023-08-20T05:50:24;7.50;;;6.70;;
58372;SDS011;44177;43.356;27.672;2023-08-20T05:52:50;9.60;;;6.78;;
58372;SDS011;44177;43.356;27.672;2023-08-20T05:55:17;10.32;;;6.90;;
58372;SDS011;44177;43.356;27.672;2023-08-20T05:57:42;10.48;;;7.15;;
58372;SDS011;44177;43.356;27.672;2023-08-20T06:00:08;7.28;;;6.55;;
58372;SDS011;44177;43.356;27.672;2023-08-20T06:02:35;8.75;;;7.10;;
58372;SDS011;44177;43.356;27.672;2023-08-20T06:05:01;8.45;;;6.50;;
58372;SDS011;44177;43.356;27.672;2023-08-20T06:07:29;8.52;;;6.80;;
58372;SDS011;44177;43.356;27.672;2023-08-20T06:09:55;6.90;;;6.00;;
58372;SDS011;44177;43.356;27.672;2023-08-20T06:12:21;8.10;;;6.68;;
58372;SDS011;44177;43.356;27.672;2023-08-20T06:14:47;10.52;;;6.50;;
58372;SDS011;44177;43.356;27.672;2023-08-20T06:17:12;8.52;;;6.32;;
58372;SDS011;44177;43.356;27.672;2023-08-20T06:19:38;6.75;;;5.88;;
58372;SDS011;44177;43.356;27.672;2023-08-20T06:22:03;7.95;;;5.82;;
58372;SDS011;44177;43.356;27.672;2023-08-20T06:24:29;7.68;;;5.85;;
58372;SDS011;44177;43.356;27.672;2023-08-20T06:26:54;6.57;;;5.95;;
58372;SDS011;44177;43.356;27.672;2023-08-20T06:29:20;7.45;;;6.00;;
58372;SDS011;44177;43.356;27.672;2023-08-20T06:31:47;12.27;;;6.22;;
58372;SDS011;44177;43.356;27.672;2023-08-20T06:34:13;7.40;;;5.75;;
58372;SDS011;44177;43.356;27.672;2023-08-20T06:36:38;9.88;;;5.75;;
58372;SDS011;44177;43.356;27.672;2023-08-20T06:39:04;7.10;;;5.65;;
58372;SDS011;44177;43.356;27.672;2023-08-20T06:41:29;6.45;;;5.57;;
58372;SDS011;44177;43.356;27.672;2023-08-20T06:43:55;6.78;;;5.63;;
58372;SDS011;44177;43.356;27.672;2023-08-20T06:46:20;7.57;;;5.57;;
58372;SDS011;44177;43.356;27.672;2023-08-20T06:48:45;6.70;;;5.75;;
58372;SDS011;44177;43.356;27.672;2023-08-20T06:51:11;10.25;;;5.10;;
58372;SDS011;44177;43.356;27.672;2023-08-20T06:53:41;10.80;;;5.45;;
58372;SDS011;44177;43.356;27.672;2023-08-20T06:56:09;10.40;;;5.03;;
58372;SDS011;44177;43.356;27.672;2023-08-20T06:58:36;9.27;;;5.97;;
58372;SDS011;44177;43.356;27.672;2023-08-20T07:01:02;6.28;;;4.85;;
58372;SDS011;44177;43.356;27.672;2023-08-20T07:03:34;10.35;;;5.35;;
58372;SDS011;44177;43.356;27.672;2023-08-20T07:06:02;5.93;;;5.32;;
58372;SDS011;44177;43.356;27.672;2023-08-20T07:08:27;6.03;;;4.82;;
58372;SDS011;44177;43.356;27.672;2023-08-20T07:10:52;7.57;;;5.15;;
58372;SDS011;44177;43.356;27.672;2023-08-20T07:13:18;7.35;;;4.70;;
58372;SDS011;44177;43.356;27.672;2023-08-20T07:15:43;12.43;;;5.32;;
58372;SDS011;44177;43.356;27.672;2023-08-20T07:18:09;6.68;;;5.20;;
58372;SDS011;44177;43.356;27.672;2023-08-20T07:20:38;7.53;;;5.18;;
58372;SDS011;44177;43.356;27.672;2023-08-20T07:23:07;8.10;;;5.10;;
58372;SDS011;44177;43.356;27.672;2023-08-20T07:25:33;7.88;;;5.50;;
58372;SDS011;44177;43.356;27.672;2023-08-20T07:28:01;7.70;;;5.32;;
58372;SDS011;44177;43.356;27.672;2023-08-20T07:30:27;5.25;;;4.63;;
58372;SDS011;44177;43.356;27.672;2023-08-20T07:32:53;10.75;;;5.13;;
58372;SDS011;44177;43.356;27.672;2023-08-20T07:35:18;7.57;;;5.65;;
58372;SDS011;44177;43.356;27.672;2023-08-20T07:37:44;9.80;;;5.20;;
58372;SDS011;44177;43.356;27.672;2023-08-20T07:40:11;8.18;;;5.07;;
58372;SDS011;44177;43.356;27.672;2023-08-20T07:42:37;5.65;;;4.78;;
58372;SDS011;44177;43.356;27.672;2023-08-20T07:45:02;6.75;;;5.28;;
58372;SDS011;44177;43.356;27.672;2023-08-20T07:47:28;7.85;;;5.00;;
58372;SDS011;44177;43.356;27.672;2023-08-20T07:49:56;9.85;;;5.25;;
58372;SDS011;44177;43.356;27.672;2023-08-20T07:52:21;8.00;;;5.00;;
58372;SDS011;44177;43.356;27.672;2023-08-20T07:54:47;9.15;;;5.28;;
58372;SDS011;44177;43.356;27.672;2023-08-20T07:57:13;8.02;;;5.18;;
58372;SDS011;44177;43.356;27.672;2023-08-20T07:59:38;7.07;;;4.85;;
58372;SDS011;44177;43.356;27.672;2023-08-20T08:02:04;7.00;;;4.72;;
58372;SDS011;44177;43.356;27.672;2023-08-20T08:04:30;6.68;;;4.82;;
58372;SDS011;44177;43.356;27.672;2023-08-20T08:06:55;6.15;;;4.57;;
58372;SDS011;44177;43.356;27.672;2023-08-20T08:09:27;4.85;;;4.45;;
58372;SDS011;44177;43.356;27.672;2023-08-20T08:11:54;5.53;;;4.68;;
58372;SDS011;44177;43.356;27.672;2023-08-20T08:14:20;11.60;;;5.40;;
58372;SDS011;44177;43.356;27.672;2023-08-20T08:16:47;8.93;;;4.97;;
58372;SDS011;44177;43.356;27.672;2023-08-20T08:19:12;9.82;;;5.05;;
58372;SDS011;44177;43.356;27.672;2023-08-20T08:21:38;6.97;;;4.60;;
58372;SDS011;44177;43.356;27.672;2023-08-20T08:24:04;7.20;;;4.80;;
58372;SDS011;44177;43.356;27.672;2023-08-20T08:26:33;7.38;;;4.60;;
58372;SDS011;44177;43.356;27.672;2023-08-20T08:28:59;5.85;;;4.63;;
58372;SDS011;44177;43.356;27.672;2023-08-20T08:31:24;6.40;;;4.97;;
58372;SDS011;44177;43.356;27.672;2023-08-20T08:33:50;7.05;;;4.90;;
58372;SDS011;44177;43.356;27.672;2023-08-20T08:36:15;5.63;;;5.07;;
58372;SDS011;44177;43.356;27.672;2023-08-20T08:38:42;5.85;;;4.35;;
58372;SDS011;44177;43.356;27.672;2023-08-20T08:41:10;7.35;;;4.72;;
58372;SDS011;44177;43.356;27.672;2023-08-20T08:43:39;7.60;;;5.72;;
58372;SDS011;44177;43.356;27.672;2023-08-20T08:46:06;5.25;;;4.53;;
58372;SDS011;44177;43.356;27.672;2023-08-20T08:48:36;5.90;;;5.30;;
58372;SDS011;44177;43.356;27.672;2023-08-20T08:51:02;6.65;;;5.10;;
58372;SDS011;44177;43.356;27.672;2023-08-20T08:53:27;8.38;;;5.13;;
58372;SDS011;44177;43.356;27.672;2023-08-20T08:55:55;10.73;;;5.28;;
58372;SDS011;44177;43.356;27.672;2023-08-20T08:58:21;7.07;;;5.20;;
58372;SDS011;44177;43.356;27.672;2023-08-20T09:00:46;6.40;;;5.20;;
58372;SDS011;44177;43.356;27.672;2023-08-20T09:03:13;6.07;;;5.47;;
58372;SDS011;44177;43.356;27.672;2023-08-20T09:06:00;7.78;;;4.97;;
58372;SDS011;44177;43.356;27.672;2023-08-20T09:08:31;7.78;;;5.30;;
58372;SDS011;44177;43.356;27.672;2023-08-20T09:10:57;6.18;;;4.65;;
58372;SDS011;44177;43.356;27.672;2023-08-20T09:13:26;6.47;;;5.05;;
58372;SDS011;44177;43.356;27.672;2023-08-20T09:15:58;8.02;;;5.45;;
58372;SDS011;44177;43.356;27.672;2023-08-20T09:18:23;6.07;;;5.47;;
58372;SDS011;44177;43.356;27.672;2023-08-20T09:20:49;5.68;;;5.10;;
58372;SDS011;44177;43.356;27.672;2023-08-20T09:23:15;11.02;;;4.60;;
58372;SDS011;44177;43.356;27.672;2023-08-20T09:25:41;5.72;;;4.90;;
58372;SDS011;44177;43.356;27.672;2023-08-20T09:28:07;5.30;;;4.18;;
58372;SDS011;44177;43.356;27.672;2023-08-20T09:30:33;7.20;;;4.38;;
58372;SDS011;44177;43.356;27.672;2023-08-20T09:33:02;7.28;;;4.45;;
58372;SDS011;44177;43.356;27.672;2023-08-20T09:35:30;4.90;;;4.00;;
58372;SDS011;44177;43.356;27.672;2023-08-20T09:37:59;6.30;;;4.03;;
58372;SDS011;44177;43.356;27.672;2023-08-20T09:40:26;5.45;;;4.18;;
58372;SDS011;44177;43.356;27.672;2023-08-20T09:42:53;13.48;;;4.25;;
58372;SDS011;44177;43.356;27.672;2023-08-20T09:45:24;11.52;;;4.40;;
58372;SDS011;44177;43.356;27.672;2023-08-20T09:47:51;4.80;;;3.75;;
58372;SDS011;44177;43.356;27.672;2023-08-20T09:50:19;5.72;;;3.70;;
58372;SDS011;44177;43.356;27.672;2023-08-20T09:55:25;7.72;;;3.50;;
58372;SDS011;44177;43.356;27.672;2023-08-20T09:58:03;4.15;;;3.10;;
58372;SDS011;44177;43.356;27.672;2023-08-20T10:00:30;5.60;;;3.35;;
58372;SDS011;44177;43.356;27.672;2023-08-20T10:02:57;4.38;;;3.30;;
58372;SDS011;44177;43.356;27.672;2023-08-20T10:05:23;3.63;;;3.33;;
58372;SDS011;44177;43.356;27.672;2023-08-20T10:07:50;5.82;;;3.50;;
58372;SDS011;44177;43.356;27.672;2023-08-20T10:10:16;4.65;;;3.65;;
58372;SDS011;44177;43.356;27.672;2023-08-20T10:12:42;3.65;;;3.17;;
58372;SDS011;44177;43.356;27.672;2023-08-20T10:15:10;6.72;;;3.08;;
58372;SDS011;44177;43.356;27.672;2023-08-20T10:17:38;4.80;;;2.70;;
58372;SDS011;44177;43.356;27.672;2023-08-20T10:20:06;2.97;;;2.60;;
58372;SDS011;44177;43.356;27.672;2023-08-20T10:22:33;5.50;;;2.28;;
58372;SDS011;44177;43.356;27.672;2023-08-20T10:25:01;5.35;;;2.10;;
58372;SDS011;44177;43.356;27.672;2023-08-20T10:27:31;4.25;;;2.30;;
58372;SDS011;44177;43.356;27.672;2023-08-20T10:29:59;3.38;;;2.00;;
58372;SDS011;44177;43.356;27.672;2023-08-20T10:35:56;6.00;;;1.80;;
58372;SDS011;44177;43.356;27.672;2023-08-20T10:38:03;2.88;;;1.70;;
58372;SDS011;44177;43.356;27.672;2023-08-20T10:43:33;2.67;;;1.95;;
58372;SDS011;44177;43.356;27.672;2023-08-20T10:46:03;1.90;;;1.75;;
58372;SDS011;44177;43.356;27.672;2023-08-20T10:51:27;3.97;;;2.20;;
58372;SDS011;44177;43.356;27.672;2023-08-20T10:59:13;1.67;;;1.58;;
58372;SDS011;44177;43.356;27.672;2023-08-20T11:01:48;2.28;;;1.83;;
58372;SDS011;44177;43.356;27.672;2023-08-20T11:04:18;1.98;;;1.52;;
58372;SDS011;44177;43.356;27.672;2023-08-20T11:06:45;2.15;;;1.83;;
58372;SDS011;44177;43.356;27.672;2023-08-20T11:09:12;1.60;;;1.50;;
58372;SDS011;44177;43.356;27.672;2023-08-20T11:11:39;4.35;;;1.58;;
58372;SDS011;44177;43.356;27.672;2023-08-20T11:14:09;3.97;;;1.85;;
58372;SDS011;44177;43.356;27.672;2023-08-20T11:16:41;3.63;;;2.00;;
58372;SDS011;44177;43.356;27.672;2023-08-20T11:19:07;4.47;;;2.10;;
58372;SDS011;44177;43.356;27.672;2023-08-20T11:21:37;3.22;;;1.77;;
58372;SDS011;44177;43.356;27.672;2023-08-20T11:24:04;2.67;;;1.85;;
58372;SDS011;44177;43.356;27.672;2023-08-20T11:26:31;1.98;;;1.88;;
58372;SDS011;44177;43.356;27.672;2023-08-20T11:28:57;3.08;;;1.98;;
58372;SDS011;44177;43.356;27.672;2023-08-20T11:31:22;2.47;;;2.10;;
58372;SDS011;44177;43.356;27.672;2023-08-20T11:33:49;2.45;;;1.80;;
58372;SDS011;44177;43.356;27.672;2023-08-20T11:36:19;4.53;;;1.80;;
58372;SDS011;44177;43.356;27.672;2023-08-20T11:38:54;2.55;;;2.00;;
58372;SDS011;44177;43.356;27.672;2023-08-20T11:41:20;2.42;;;1.90;;
58372;SDS011;44177;43.356;27.672;2023-08-20T11:43:46;2.30;;;1.92;;
58372;SDS011;44177;43.356;27.672;2023-08-20T11:46:18;5.05;;;2.35;;
58372;SDS011;44177;43.356;27.672;2023-08-20T11:51:55;2.50;;;2.10;;
58372;SDS011;44177;43.356;27.672;2023-08-20T11:54:20;6.15;;;2.08;;
58372;SDS011;44177;43.356;27.672;2023-08-20T11:56:47;6.22;;;2.00;;
58372;SDS011;44177;43.356;27.672;2023-08-20T11:59:14;3.85;;;1.90;;
58372;SDS011;44177;43.356;27.672;2023-08-20T12:01:41;5.32;;;2.08;;
58372;SDS011;44177;43.356;27.672;2023-08-20T12:04:07;4.03;;;1.95;;
58372;SDS011;44177;43.356;27.672;2023-08-20T12:06:37;5.25;;;2.22;;
58372;SDS011;44177;43.356;27.672;2023-08-20T12:09:19;3.92;;;2.08;;
58372;SDS011;44177;43.356;27.672;2023-08-20T12:11:49;4.80;;;2.50;;
58372;SDS011;44177;43.356;27.672;2023-08-20T12:14:16;2.45;;;2.10;;
58372;SDS011;44177;43.356;27.672;2023-08-20T12:16:42;3.03;;;2.33;;
58372;SDS011;44177;43.356;27.672;2023-08-20T12:19:08;6.78;;;2.28;;
58372;SDS011;44177;43.356;27.672;2023-08-20T12:21:34;2.40;;;2.13;;
58372;SDS011;44177;43.356;27.672;2023-08-20T12:24:00;2.58;;;2.38;;
58372;SDS011;44177;43.356;27.672;2023-08-20T12:26:25;3.67;;;2.47;;
58372;SDS011;44177;43.356;27.672;2023-08-20T12:28:51;3.45;;;2.13;;
58372;SDS011;44177;43.356;27.672;2023-08-20T12:31:16;4.25;;;2.20;;
58372;SDS011;44177;43.356;27.672;2023-08-20T12:33:42;5.05;;;2.20;;
58372;SDS011;44177;43.356;27.672;2023-08-20T12:36:08;2.63;;;2.10;;
58372;SDS011;44177;43.356;27.672;2023-08-20T12:38:33;3.38;;;2.03;;
58372;SDS011;44177;43.356;27.672;2023-08-20T12:41:00;2.97;;;1.95;;
58372;SDS011;44177;43.356;27.672;2023-08-20T12:43:26;6.65;;;1.90;;
58372;SDS011;44177;43.356;27.672;2023-08-20T12:45:52;3.97;;;2.00;;
58372;SDS011;44177;43.356;27.672;2023-08-20T12:48:17;2.25;;;1.90;;
58372;SDS011;44177;43.356;27.672;2023-08-20T12:50:42;4.43;;;2.30;;
58372;SDS011;44177;43.356;27.672;2023-08-20T12:53:08;5.32;;;2.40;;
58372;SDS011;44177;43.356;27.672;2023-08-20T12:55:33;2.90;;;2.00;;
58372;SDS011;44177;43.356;27.672;2023-08-20T12:57:59;2.10;;;1.90;;
58372;SDS011;44177;43.356;27.672;2023-08-20T13:00:25;2.70;;;1.95;;
58372;SDS011;44177;43.356;27.672;2023-08-20T13:02:52;3.17;;;2.00;;
58372;SDS011;44177;43.356;27.672;2023-08-20T13:05:19;2.78;;;1.90;;
58372;SDS011;44177;43.356;27.672;2023-08-20T13:07:45;4.68;;;2.25;;
58372;SDS011;44177;43.356;27.672;2023-08-20T13:10:11;2.95;;;1.98;;
58372;SDS011;44177;43.356;27.672;2023-08-20T13:12:37;5.80;;;2.50;;
58372;SDS011;44177;43.356;27.672;2023-08-20T13:15:06;6.82;;;2.30;;
58372;SDS011;44177;43.356;27.672;2023-08-20T13:17:32;3.00;;;2.17;;
58372;SDS011;44177;43.356;27.672;2023-08-20T13:19:58;3.17;;;1.92;;
58372;SDS011;44177;43.356;27.672;2023-08-20T13:22:23;8.50;;;2.20;;
58372;SDS011;44177;43.356;27.672;2023-08-20T13:24:49;4.78;;;2.20;;
58372;SDS011;44177;43.356;27.672;2023-08-20T13:27:14;2.80;;;2.00;;
58372;SDS011;44177;43.356;27.672;2023-08-20T13:29:40;3.78;;;2.30;;
58372;SDS011;44177;43.356;27.672;2023-08-20T13:32:06;2.10;;;1.80;;
58372;SDS011;44177;43.356;27.672;2023-08-20T13:34:31;3.33;;;2.22;;
58372;SDS011;44177;43.356;27.672;2023-08-20T13:36:57;4.50;;;2.17;;
58372;SDS011;44177;43.356;27.672;2023-08-20T13:39:22;3.45;;;2.15;;
58372;SDS011;44177;43.356;27.672;2023-08-20T13:41:48;3.40;;;2.08;;
58372;SDS011;44177;43.356;27.672;2023-08-20T13:44:14;6.78;;;2.33;;
58372;SDS011;44177;43.356;27.672;2023-08-20T13:46:39;7.05;;;2.00;;
58372;SDS011;44177;43.356;27.672;2023-08-20T13:49:05;3.15;;;2.10;;
58372;SDS011;44177;43.356;27.672;2023-08-20T13:51:30;3.53;;;1.98;;
58372;SDS011;44177;43.356;27.672;2023-08-20T13:53:56;3.38;;;2.03;;
58372;SDS011;44177;43.356;27.672;2023-08-20T13:56:22;2.85;;;2.10;;
58372;SDS011;44177;43.356;27.672;2023-08-20T13:58:47;4.05;;;2.13;;
58372;SDS011;44177;43.356;27.672;2023-08-20T14:01:13;5.93;;;2.13;;
58372;SDS011;44177;43.356;27.672;2023-08-20T14:03:39;5.43;;;2.05;;
58372;SDS011;44177;43.356;27.672;2023-08-20T14:06:05;6.05;;;1.90;;
58372;SDS011;44177;43.356;27.672;2023-08-20T14:08:31;5.32;;;2.30;;
58372;SDS011;44177;43.356;27.672;2023-08-20T14:10:57;4.50;;;2.35;;
58372;SDS011;44177;43.356;27.672;2023-08-20T14:13:22;5.47;;;2.30;;
58372;SDS011;44177;43.356;27.672;2023-08-20T14:15:48;2.63;;;2.15;;
58372;SDS011;44177;43.356;27.672;2023-08-20T14:18:13;5.20;;;2.10;;
58372;SDS011;44177;43.356;27.672;2023-08-20T14:20:39;2.95;;;1.88;;
58372;SDS011;44177;43.356;27.672;2023-08-20T14:23:04;3.20;;;1.70;;
58372;SDS011;44177;43.356;27.672;2023-08-20T14:25:30;4.57;;;1.70;;
58372;SDS011;44177;43.356;27.672;2023-08-20T14:27:55;6.47;;;1.88;;
58372;SDS011;44177;43.356;27.672;2023-08-20T14:30:21;3.13;;;1.98;;
58372;SDS011;44177;43.356;27.672;2023-08-20T14:32:47;2.75;;;2.00;;
58372;SDS011;44177;43.356;27.672;2023-08-20T14:35:12;3.33;;;2.08;;
58372;SDS011;44177;43.356;27.672;2023-08-20T14:37:38;4.18;;;1.90;;
58372;SDS011;44177;43.356;27.672;2023-08-20T14:40:03;3.95;;;2.10;;
58372;SDS011;44177;43.356;27.672;2023-08-20T14:42:31;2.60;;;1.90;;
58372;SDS011;44177;43.356;27.672;2023-08-20T14:44:57;5.25;;;1.85;;
58372;SDS011;44177;43.356;27.672;2023-08-20T14:47:23;3.78;;;1.90;;
58372;SDS011;44177;43.356;27.672;2023-08-20T14:49:48;4.82;;;1.88;;
58372;SDS011;44177;43.356;27.672;2023-08-20T14:52:14;3.75;;;1.80;;
58372;SDS011;44177;43.356;27.672;2023-08-20T14:54:39;4.38;;;1.70;;